sensor_id;sensor_type;location;lat;lon;timestamp;P1;durP1;ratioP1;P2;durP2;ratioP2
47219;SDS011;32961;51.936;4.788;2023-05-01T00:02:20;6.03;;;3.10;;
47219;SDS011;32961;51.936;4.788;2023-05-01T00:04:47;7.65;;;2.95;;
47219;SDS011;32961;51.936;4.788;2023-05-01T00:07:16;7.40;;;2.78;;
47219;SDS011;32961;51.936;4.788;2023-05-01T00:09:43;5.20;;;2.90;;
47219;SDS011;32961;51.936;4.788;2023-05-01T00:12:11;4.15;;;2.70;;
47219;SDS011;32961;51.936;4.788;2023-05-01T00:14:39;3.97;;;2.90;;
47219;SDS011;32961;51.936;4.788;2023-05-01T00:17:08;7.32;;;3.08;;
47219;SDS011;32961;51.936;4.788;2023-05-01T00:19:36;5.82;;;3.10;;
47219;SDS011;32961;51.936;4.788;2023-05-01T00:22:04;5.10;;;3.03;;
47219;SDS011;32961;51.936;4.788;2023-05-01T00:24:32;5.40;;;2.88;;
47219;SDS011;32961;51.936;4.788;2023-05-01T00:26:59;4.85;;;2.60;;
47219;SDS011;32961;51.936;4.788;2023-05-01T00:29:28;7.40;;;2.92;;
47219;SDS011;32961;51.936;4.788;2023-05-01T00:31:56;4.55;;;3.00;;
47219;SDS011;32961;51.936;4.788;2023-05-01T00:34:25;6.25;;;2.95;;
47219;SDS011;32961;51.936;4.788;2023-05-01T00:36:53;4.97;;;2.80;;
47219;SDS011;32961;51.936;4.788;2023-05-01T00:39:20;3.10;;;2.53;;
47219;SDS011;32961;51.936;4.788;2023-05-01T00:41:48;6.78;;;2.95;;
47219;SDS011;32961;51.936;4.788;2023-05-01T00:44:16;9.75;;;2.95;;
47219;SDS011;32961;51.936;4.788;2023-05-01T00:46:44;7.38;;;2.95;;
47219;SDS011;32961;51.936;4.788;2023-05-01T00:49:12;4.22;;;2.78;;
47219;SDS011;32961;51.936;4.788;2023-05-01T00:51:44;4.07;;;2.70;;
47219;SDS011;32961;51.936;4.788;2023-05-01T00:54:15;4.82;;;2.97;;
47219;SDS011;32961;51.936;4.788;2023-05-01T00:56:45;8.23;;;3.42;;
47219;SDS011;32961;51.936;4.788;2023-05-01T00:59:14;5.43;;;2.85;;
47219;SDS011;32961;51.936;4.788;2023-05-01T01:01:42;6.53;;;2.80;;
47219;SDS011;32961;51.936;4.788;2023-05-01T01:04:10;5.00;;;2.90;;
47219;SDS011;32961;51.936;4.788;2023-05-01T01:06:41;6.18;;;2.85;;
47219;SDS011;32961;51.936;4.788;2023-05-01T01:09:22;5.68;;;2.60;;
47219;SDS011;32961;51.936;4.788;2023-05-01T01:12:02;4.40;;;3.00;;
47219;SDS011;32961;51.936;4.788;2023-05-01T01:14:44;5.30;;;3.00;;
47219;SDS011;32961;51.936;4.788;2023-05-01T01:17:19;5.85;;;2.92;;
47219;SDS011;32961;51.936;4.788;2023-05-01T01:20:01;5.13;;;3.10;;
47219;SDS011;32961;51.936;4.788;2023-05-01T01:22:42;4.53;;;2.88;;
47219;SDS011;32961;51.936;4.788;2023-05-01T01:28:21;3.80;;;2.67;;
47219;SDS011;32961;51.936;4.788;2023-05-01T01:31:04;8.60;;;2.85;;
47219;SDS011;32961;51.936;4.788;2023-05-01T01:33:55;4.78;;;2.90;;
47219;SDS011;32961;51.936;4.788;2023-05-01T01:36:40;5.10;;;3.00;;
47219;SDS011;32961;51.936;4.788;2023-05-01T01:39:15;5.95;;;3.00;;
47219;SDS011;32961;51.936;4.788;2023-05-01T01:41:51;4.00;;;2.83;;
47219;SDS011;32961;51.936;4.788;2023-05-01T01:44:21;10.05;;;3.03;;
47219;SDS011;32961;51.936;4.788;2023-05-01T01:46:55;4.07;;;2.95;;
47219;SDS011;32961;51.936;4.788;2023-05-01T01:49:26;5.47;;;3.20;;
47219;SDS011;32961;51.936;4.788;2023-05-01T01:51:56;4.80;;;3.05;;
47219;SDS011;32961;51.936;4.788;2023-05-01T01:54:28;4.95;;;2.58;;
47219;SDS011;32961;51.936;4.788;2023-05-01T01:57:02;4.05;;;3.20;;
47219;SDS011;32961;51.936;4.788;2023-05-01T01:59:33;3.90;;;2.78;;
47219;SDS011;32961;51.936;4.788;2023-05-01T02:02:01;15.48;;;3.22;;
47219;SDS011;32961;51.936;4.788;2023-05-01T02:04:31;5.95;;;3.30;;
47219;SDS011;32961;51.936;4.788;2023-05-01T02:07:01;8.32;;;3.00;;
47219;SDS011;32961;51.936;4.788;2023-05-01T02:09:30;6.15;;;3.78;;
47219;SDS011;32961;51.936;4.788;2023-05-01T02:12:01;16.60;;;5.78;;
47219;SDS011;32961;51.936;4.788;2023-05-01T02:14:31;6.15;;;3.60;;
47219;SDS011;32961;51.936;4.788;2023-05-01T02:17:01;8.25;;;3.67;;
47219;SDS011;32961;51.936;4.788;2023-05-01T02:19:32;6.50;;;3.22;;
47219;SDS011;32961;51.936;4.788;2023-05-01T02:22:01;5.80;;;3.35;;
47219;SDS011;32961;51.936;4.788;2023-05-01T02:24:31;8.13;;;3.20;;
47219;SDS011;32961;51.936;4.788;2023-05-01T02:27:02;4.80;;;3.20;;
47219;SDS011;32961;51.936;4.788;2023-05-01T02:29:33;5.97;;;3.45;;
47219;SDS011;32961;51.936;4.788;2023-05-01T02:32:01;5.45;;;3.47;;
47219;SDS011;32961;51.936;4.788;2023-05-01T02:34:29;5.57;;;2.80;;
47219;SDS011;32961;51.936;4.788;2023-05-01T02:37:02;5.35;;;2.90;;
47219;SDS011;32961;51.936;4.788;2023-05-01T02:39:32;6.78;;;3.00;;
47219;SDS011;32961;51.936;4.788;2023-05-01T02:42:00;9.57;;;3.65;;
47219;SDS011;32961;51.936;4.788;2023-05-01T02:44:29;7.22;;;3.00;;
47219;SDS011;32961;51.936;4.788;2023-05-01T02:47:05;9.00;;;3.35;;
47219;SDS011;32961;51.936;4.788;2023-05-01T02:49:36;7.28;;;3.17;;
47219;SDS011;32961;51.936;4.788;2023-05-01T02:52:05;8.10;;;3.35;;
47219;SDS011;32961;51.936;4.788;2023-05-01T02:54:33;8.93;;;3.28;;
47219;SDS011;32961;51.936;4.788;2023-05-01T02:57:02;5.75;;;3.17;;
47219;SDS011;32961;51.936;4.788;2023-05-01T02:59:30;6.90;;;3.15;;
47219;SDS011;32961;51.936;4.788;2023-05-01T03:01:58;4.38;;;3.10;;
47219;SDS011;32961;51.936;4.788;2023-05-01T03:04:26;8.88;;;3.30;;
47219;SDS011;32961;51.936;4.788;2023-05-01T03:06:55;6.68;;;3.10;;
47219;SDS011;32961;51.936;4.788;2023-05-01T03:09:23;5.20;;;3.00;;
47219;SDS011;32961;51.936;4.788;2023-05-01T03:11:51;5.47;;;3.15;;
47219;SDS011;32961;51.936;4.788;2023-05-01T03:14:19;6.90;;;3.25;;
47219;SDS011;32961;51.936;4.788;2023-05-01T03:16:47;7.35;;;3.53;;
47219;SDS011;32961;51.936;4.788;2023-05-01T03:19:15;9.60;;;3.20;;
47219;SDS011;32961;51.936;4.788;2023-05-01T03:21:43;7.93;;;3.22;;
47219;SDS011;32961;51.936;4.788;2023-05-01T03:24:12;5.93;;;3.20;;
47219;SDS011;32961;51.936;4.788;2023-05-01T03:26:39;5.43;;;3.13;;
47219;SDS011;32961;51.936;4.788;2023-05-01T03:29:07;5.93;;;3.55;;
47219;SDS011;32961;51.936;4.788;2023-05-01T03:31:38;8.10;;;3.42;;
47219;SDS011;32961;51.936;4.788;2023-05-01T03:34:06;6.68;;;3.42;;
47219;SDS011;32961;51.936;4.788;2023-05-01T03:36:34;9.15;;;3.70;;
47219;SDS011;32961;51.936;4.788;2023-05-01T03:39:02;8.70;;;3.55;;
47219;SDS011;32961;51.936;4.788;2023-05-01T03:41:33;6.20;;;3.97;;
47219;SDS011;32961;51.936;4.788;2023-05-01T03:44:01;7.95;;;4.38;;
47219;SDS011;32961;51.936;4.788;2023-05-01T03:46:29;9.77;;;3.85;;
47219;SDS011;32961;51.936;4.788;2023-05-01T03:48:57;6.45;;;3.20;;
47219;SDS011;32961;51.936;4.788;2023-05-01T03:51:25;6.80;;;4.05;;
47219;SDS011;32961;51.936;4.788;2023-05-01T03:53:52;6.97;;;3.25;;
47219;SDS011;32961;51.936;4.788;2023-05-01T03:56:24;6.13;;;3.67;;
47219;SDS011;32961;51.936;4.788;2023-05-01T03:58:53;6.72;;;3.80;;
47219;SDS011;32961;51.936;4.788;2023-05-01T04:01:22;8.82;;;4.85;;
47219;SDS011;32961;51.936;4.788;2023-05-01T04:03:51;7.20;;;3.45;;
47219;SDS011;32961;51.936;4.788;2023-05-01T04:06:19;8.45;;;3.53;;
47219;SDS011;32961;51.936;4.788;2023-05-01T04:08:48;6.95;;;3.60;;
47219;SDS011;32961;51.936;4.788;2023-05-01T04:11:15;5.22;;;3.05;;
47219;SDS011;32961;51.936;4.788;2023-05-01T04:13:43;7.10;;;3.22;;
47219;SDS011;32961;51.936;4.788;2023-05-01T04:16:13;9.18;;;3.90;;
47219;SDS011;32961;51.936;4.788;2023-05-01T04:18:40;10.90;;;3.65;;
47219;SDS011;32961;51.936;4.788;2023-05-01T04:21:08;8.55;;;3.83;;
47219;SDS011;32961;51.936;4.788;2023-05-01T04:23:36;6.35;;;3.55;;
47219;SDS011;32961;51.936;4.788;2023-05-01T04:26:04;6.68;;;3.53;;
47219;SDS011;32961;51.936;4.788;2023-05-01T04:28:32;7.10;;;3.50;;
47219;SDS011;32961;51.936;4.788;2023-05-01T04:31:00;10.65;;;4.05;;
47219;SDS011;32961;51.936;4.788;2023-05-01T04:33:29;6.07;;;3.20;;
47219;SDS011;32961;51.936;4.788;2023-05-01T04:35:57;8.25;;;3.67;;
47219;SDS011;32961;51.936;4.788;2023-05-01T04:38:25;9.35;;;3.17;;
47219;SDS011;32961;51.936;4.788;2023-05-01T04:40:54;7.55;;;3.03;;
47219;SDS011;32961;51.936;4.788;2023-05-01T04:43:21;10.02;;;3.35;;
47219;SDS011;32961;51.936;4.788;2023-05-01T04:45:49;6.43;;;3.05;;
47219;SDS011;32961;51.936;4.788;2023-05-01T04:48:17;5.22;;;3.03;;
47219;SDS011;32961;51.936;4.788;2023-05-01T04:50:46;6.30;;;3.20;;
47219;SDS011;32961;51.936;4.788;2023-05-01T04:53:14;6.80;;;2.95;;
47219;SDS011;32961;51.936;4.788;2023-05-01T04:55:42;9.10;;;3.42;;
47219;SDS011;32961;51.936;4.788;2023-05-01T04:58:10;11.35;;;3.65;;
47219;SDS011;32961;51.936;4.788;2023-05-01T05:00:38;9.45;;;3.70;;
47219;SDS011;32961;51.936;4.788;2023-05-01T05:03:06;9.35;;;3.33;;
47219;SDS011;32961;51.936;4.788;2023-05-01T05:05:34;13.27;;;5.65;;
47219;SDS011;32961;51.936;4.788;2023-05-01T05:08:03;6.75;;;4.00;;
47219;SDS011;32961;51.936;4.788;2023-05-01T05:10:34;6.28;;;3.80;;
47219;SDS011;32961;51.936;4.788;2023-05-01T05:13:02;6.90;;;3.70;;
47219;SDS011;32961;51.936;4.788;2023-05-01T05:15:30;7.18;;;3.95;;
47219;SDS011;32961;51.936;4.788;2023-05-01T05:17:57;9.40;;;4.20;;
47219;SDS011;32961;51.936;4.788;2023-05-01T05:20:25;8.55;;;3.47;;
47219;SDS011;32961;51.936;4.788;2023-05-01T05:22:53;6.43;;;3.78;;
47219;SDS011;32961;51.936;4.788;2023-05-01T05:25:22;10.73;;;3.30;;
47219;SDS011;32961;51.936;4.788;2023-05-01T05:27:50;7.97;;;3.75;;
47219;SDS011;32961;51.936;4.788;2023-05-01T05:30:18;8.95;;;4.60;;
47219;SDS011;32961;51.936;4.788;2023-05-01T05:32:46;12.70;;;5.03;;
47219;SDS011;32961;51.936;4.788;2023-05-01T05:35:14;6.60;;;3.78;;
47219;SDS011;32961;51.936;4.788;2023-05-01T05:37:42;5.07;;;3.30;;
47219;SDS011;32961;51.936;4.788;2023-05-01T05:40:11;10.38;;;3.90;;
47219;SDS011;32961;51.936;4.788;2023-05-01T05:42:41;10.73;;;3.85;;
47219;SDS011;32961;51.936;4.788;2023-05-01T05:45:09;8.50;;;3.97;;
47219;SDS011;32961;51.936;4.788;2023-05-01T05:47:37;7.80;;;3.95;;
47219;SDS011;32961;51.936;4.788;2023-05-01T05:50:07;5.95;;;3.70;;
47219;SDS011;32961;51.936;4.788;2023-05-01T05:52:35;6.28;;;3.63;;
47219;SDS011;32961;51.936;4.788;2023-05-01T05:55:04;7.88;;;4.57;;
47219;SDS011;32961;51.936;4.788;2023-05-01T05:57:32;9.60;;;3.70;;
47219;SDS011;32961;51.936;4.788;2023-05-01T06:00:04;6.72;;;3.83;;
47219;SDS011;32961;51.936;4.788;2023-05-01T06:02:32;6.43;;;3.70;;
47219;SDS011;32961;51.936;4.788;2023-05-01T06:05:00;9.10;;;3.75;;
47219;SDS011;32961;51.936;4.788;2023-05-01T06:07:28;7.80;;;3.97;;
47219;SDS011;32961;51.936;4.788;2023-05-01T06:09:56;12.07;;;5.70;;
47219;SDS011;32961;51.936;4.788;2023-05-01T06:12:28;10.98;;;4.40;;
47219;SDS011;32961;51.936;4.788;2023-05-01T06:14:57;8.30;;;3.50;;
47219;SDS011;32961;51.936;4.788;2023-05-01T06:17:26;12.13;;;5.35;;
47219;SDS011;32961;51.936;4.788;2023-05-01T06:19:54;7.63;;;3.67;;
47219;SDS011;32961;51.936;4.788;2023-05-01T06:22:22;6.85;;;3.67;;
47219;SDS011;32961;51.936;4.788;2023-05-01T06:24:50;8.13;;;3.78;;
47219;SDS011;32961;51.936;4.788;2023-05-01T06:27:18;5.57;;;3.40;;
47219;SDS011;32961;51.936;4.788;2023-05-01T06:29:46;13.65;;;5.18;;
47219;SDS011;32961;51.936;4.788;2023-05-01T06:32:13;5.65;;;3.58;;
47219;SDS011;32961;51.936;4.788;2023-05-01T06:34:43;7.38;;;3.80;;
47219;SDS011;32961;51.936;4.788;2023-05-01T06:37:11;9.88;;;4.47;;
47219;SDS011;32961;51.936;4.788;2023-05-01T06:39:38;11.82;;;3.60;;
47219;SDS011;32961;51.936;4.788;2023-05-01T06:42:06;8.48;;;3.92;;
47219;SDS011;32961;51.936;4.788;2023-05-01T06:44:40;6.78;;;3.90;;
47219;SDS011;32961;51.936;4.788;2023-05-01T06:47:08;9.85;;;5.35;;
47219;SDS011;32961;51.936;4.788;2023-05-01T06:49:37;12.82;;;4.28;;
47219;SDS011;32961;51.936;4.788;2023-05-01T06:52:06;7.22;;;3.92;;
47219;SDS011;32961;51.936;4.788;2023-05-01T06:54:33;7.00;;;3.78;;
47219;SDS011;32961;51.936;4.788;2023-05-01T06:57:01;9.60;;;3.75;;
47219;SDS011;32961;51.936;4.788;2023-05-01T06:59:29;9.68;;;4.30;;
47219;SDS011;32961;51.936;4.788;2023-05-01T07:01:57;12.75;;;4.30;;
47219;SDS011;32961;51.936;4.788;2023-05-01T07:04:25;14.63;;;3.97;;
47219;SDS011;32961;51.936;4.788;2023-05-01T07:06:52;9.10;;;4.30;;
47219;SDS011;32961;51.936;4.788;2023-05-01T07:09:21;8.32;;;3.70;;
47219;SDS011;32961;51.936;4.788;2023-05-01T07:11:49;11.10;;;4.40;;
47219;SDS011;32961;51.936;4.788;2023-05-01T07:14:17;9.55;;;3.97;;
47219;SDS011;32961;51.936;4.788;2023-05-01T07:16:45;6.68;;;4.35;;
47219;SDS011;32961;51.936;4.788;2023-05-01T07:19:13;12.18;;;4.60;;
47219;SDS011;32961;51.936;4.788;2023-05-01T07:21:41;11.85;;;4.22;;
47219;SDS011;32961;51.936;4.788;2023-05-01T07:24:09;13.32;;;4.28;;
47219;SDS011;32961;51.936;4.788;2023-05-01T07:26:38;8.70;;;4.40;;
47219;SDS011;32961;51.936;4.788;2023-05-01T07:29:06;7.55;;;4.13;;
47219;SDS011;32961;51.936;4.788;2023-05-01T07:31:34;10.65;;;4.20;;
47219;SDS011;32961;51.936;4.788;2023-05-01T07:34:03;10.38;;;4.30;;
47219;SDS011;32961;51.936;4.788;2023-05-01T07:36:30;11.48;;;4.68;;
47219;SDS011;32961;51.936;4.788;2023-05-01T07:38:59;11.35;;;4.60;;
47219;SDS011;32961;51.936;4.788;2023-05-01T07:41:27;9.73;;;4.60;;
47219;SDS011;32961;51.936;4.788;2023-05-01T07:43:56;12.30;;;4.68;;
47219;SDS011;32961;51.936;4.788;2023-05-01T07:46:24;11.38;;;4.70;;
47219;SDS011;32961;51.936;4.788;2023-05-01T07:48:53;8.55;;;4.10;;
47219;SDS011;32961;51.936;4.788;2023-05-01T07:51:21;12.95;;;5.10;;
47219;SDS011;32961;51.936;4.788;2023-05-01T07:53:49;10.23;;;4.30;;
47219;SDS011;32961;51.936;4.788;2023-05-01T07:56:17;12.13;;;5.65;;
47219;SDS011;32961;51.936;4.788;2023-05-01T07:58:46;11.65;;;4.63;;
47219;SDS011;32961;51.936;4.788;2023-05-01T08:01:15;10.43;;;4.78;;
47219;SDS011;32961;51.936;4.788;2023-05-01T08:03:44;14.25;;;4.97;;
47219;SDS011;32961;51.936;4.788;2023-05-01T08:06:14;8.40;;;4.78;;
47219;SDS011;32961;51.936;4.788;2023-05-01T08:08:42;12.40;;;5.07;;
47219;SDS011;32961;51.936;4.788;2023-05-01T08:11:10;11.05;;;4.43;;
47219;SDS011;32961;51.936;4.788;2023-05-01T08:13:38;12.30;;;4.88;;
47219;SDS011;32961;51.936;4.788;2023-05-01T08:16:06;13.52;;;6.20;;
47219;SDS011;32961;51.936;4.788;2023-05-01T08:18:36;12.27;;;5.15;;
47219;SDS011;32961;51.936;4.788;2023-05-01T08:21:04;10.45;;;5.18;;
47219;SDS011;32961;51.936;4.788;2023-05-01T08:23:32;11.07;;;5.30;;
47219;SDS011;32961;51.936;4.788;2023-05-01T08:26:00;16.17;;;6.20;;
47219;SDS011;32961;51.936;4.788;2023-05-01T08:28:28;9.27;;;5.07;;
47219;SDS011;32961;51.936;4.788;2023-05-01T08:30:55;13.40;;;5.53;;
47219;SDS011;32961;51.936;4.788;2023-05-01T08:33:25;12.43;;;5.20;;
47219;SDS011;32961;51.936;4.788;2023-05-01T08:35:54;12.32;;;4.88;;
47219;SDS011;32961;51.936;4.788;2023-05-01T08:38:22;10.18;;;4.78;;
47219;SDS011;32961;51.936;4.788;2023-05-01T08:40:50;11.35;;;5.32;;
47219;SDS011;32961;51.936;4.788;2023-05-01T08:43:19;10.30;;;4.75;;
47219;SDS011;32961;51.936;4.788;2023-05-01T08:45:49;11.68;;;5.70;;
47219;SDS011;32961;51.936;4.788;2023-05-01T08:48:19;9.38;;;5.65;;
47219;SDS011;32961;51.936;4.788;2023-05-01T08:50:49;10.18;;;5.03;;
47219;SDS011;32961;51.936;4.788;2023-05-01T08:53:23;11.25;;;4.95;;
47219;SDS011;32961;51.936;4.788;2023-05-01T08:55:52;10.75;;;5.22;;
47219;SDS011;32961;51.936;4.788;2023-05-01T08:58:22;8.73;;;5.35;;
47219;SDS011;32961;51.936;4.788;2023-05-01T09:00:52;10.07;;;5.30;;
47219;SDS011;32961;51.936;4.788;2023-05-01T09:03:21;11.07;;;5.68;;
47219;SDS011;32961;51.936;4.788;2023-05-01T09:05:50;12.60;;;5.35;;
47219;SDS011;32961;51.936;4.788;2023-05-01T09:08:19;10.93;;;5.45;;
47219;SDS011;32961;51.936;4.788;2023-05-01T09:10:48;9.30;;;5.13;;
47219;SDS011;32961;51.936;4.788;2023-05-01T09:13:20;12.03;;;6.33;;
47219;SDS011;32961;51.936;4.788;2023-05-01T09:15:48;10.93;;;5.50;;
47219;SDS011;32961;51.936;4.788;2023-05-01T09:18:16;9.05;;;5.47;;
47219;SDS011;32961;51.936;4.788;2023-05-01T09:20:44;14.77;;;5.40;;
47219;SDS011;32961;51.936;4.788;2023-05-01T09:23:11;13.13;;;5.45;;
47219;SDS011;32961;51.936;4.788;2023-05-01T09:25:39;8.30;;;5.47;;
47219;SDS011;32961;51.936;4.788;2023-05-01T09:28:10;12.15;;;6.53;;
47219;SDS011;32961;51.936;4.788;2023-05-01T09:30:38;9.38;;;5.07;;
47219;SDS011;32961;51.936;4.788;2023-05-01T09:33:06;11.75;;;5.05;;
47219;SDS011;32961;51.936;4.788;2023-05-01T09:35:48;9.63;;;5.32;;
47219;SDS011;32961;51.936;4.788;2023-05-01T09:38:18;11.10;;;5.65;;
47219;SDS011;32961;51.936;4.788;2023-05-01T09:40:49;18.27;;;5.70;;
47219;SDS011;32961;51.936;4.788;2023-05-01T09:43:25;8.05;;;5.10;;
47219;SDS011;32961;51.936;4.788;2023-05-01T09:46:03;10.40;;;4.88;;
47219;SDS011;32961;51.936;4.788;2023-05-01T09:48:35;12.18;;;5.18;;
47219;SDS011;32961;51.936;4.788;2023-05-01T09:51:18;10.98;;;5.80;;
47219;SDS011;32961;51.936;4.788;2023-05-01T09:53:47;12.20;;;5.88;;
47219;SDS011;32961;51.936;4.788;2023-05-01T09:56:15;10.85;;;5.63;;
47219;SDS011;32961;51.936;4.788;2023-05-01T09:58:45;14.80;;;5.38;;
47219;SDS011;32961;51.936;4.788;2023-05-01T10:01:13;16.00;;;5.90;;
47219;SDS011;32961;51.936;4.788;2023-05-01T10:03:41;13.52;;;6.30;;
47219;SDS011;32961;51.936;4.788;2023-05-01T10:06:10;12.70;;;6.35;;
47219;SDS011;32961;51.936;4.788;2023-05-01T10:08:45;11.23;;;6.38;;
47219;SDS011;32961;51.936;4.788;2023-05-01T10:11:13;12.65;;;7.35;;
47219;SDS011;32961;51.936;4.788;2023-05-01T10:13:41;12.82;;;6.25;;
47219;SDS011;32961;51.936;4.788;2023-05-01T10:18:56;9.57;;;5.75;;
47219;SDS011;32961;51.936;4.788;2023-05-01T10:21:28;16.80;;;6.78;;
47219;SDS011;32961;51.936;4.788;2023-05-01T10:23:57;11.20;;;5.97;;
47219;SDS011;32961;51.936;4.788;2023-05-01T10:26:25;10.13;;;6.60;;
47219;SDS011;32961;51.936;4.788;2023-05-01T10:28:54;15.05;;;6.50;;
47219;SDS011;32961;51.936;4.788;2023-05-01T10:31:24;14.90;;;7.05;;
47219;SDS011;32961;51.936;4.788;2023-05-01T10:33:55;11.90;;;6.93;;
47219;SDS011;32961;51.936;4.788;2023-05-01T10:36:25;13.85;;;6.25;;
47219;SDS011;32961;51.936;4.788;2023-05-01T10:38:59;19.33;;;8.10;;
47219;SDS011;32961;51.936;4.788;2023-05-01T10:44:30;14.40;;;6.70;;
47219;SDS011;32961;51.936;4.788;2023-05-01T10:50:04;15.35;;;8.13;;
47219;SDS011;32961;51.936;4.788;2023-05-01T10:55:40;17.35;;;6.18;;
47219;SDS011;32961;51.936;4.788;2023-05-01T10:58:09;14.90;;;8.30;;
47219;SDS011;32961;51.936;4.788;2023-05-01T11:00:37;15.80;;;7.13;;
47219;SDS011;32961;51.936;4.788;2023-05-01T11:06:08;13.32;;;6.13;;
47219;SDS011;32961;51.936;4.788;2023-05-01T11:08:36;14.35;;;6.65;;
47219;SDS011;32961;51.936;4.788;2023-05-01T11:14:06;9.50;;;5.78;;
47219;SDS011;32961;51.936;4.788;2023-05-01T11:16:40;16.85;;;6.22;;
47219;SDS011;32961;51.936;4.788;2023-05-01T11:22:17;9.32;;;6.13;;
47219;SDS011;32961;51.936;4.788;2023-05-01T11:24:46;11.48;;;5.93;;
47219;SDS011;32961;51.936;4.788;2023-05-01T11:27:14;9.60;;;6.10;;
47219;SDS011;32961;51.936;4.788;2023-05-01T11:29:43;9.23;;;5.70;;
47219;SDS011;32961;51.936;4.788;2023-05-01T11:32:17;8.98;;;4.93;;
47219;SDS011;32961;51.936;4.788;2023-05-01T11:34:47;12.32;;;6.32;;
47219;SDS011;32961;51.936;4.788;2023-05-01T11:37:17;11.10;;;5.68;;
47219;SDS011;32961;51.936;4.788;2023-05-01T11:39:47;12.07;;;5.30;;
47219;SDS011;32961;51.936;4.788;2023-05-01T11:42:16;9.52;;;5.45;;
47219;SDS011;32961;51.936;4.788;2023-05-01T11:47:42;11.35;;;5.72;;
47219;SDS011;32961;51.936;4.788;2023-05-01T11:50:10;11.88;;;5.85;;
47219;SDS011;32961;51.936;4.788;2023-05-01T11:52:43;14.05;;;5.53;;
47219;SDS011;32961;51.936;4.788;2023-05-01T11:55:14;10.98;;;5.57;;
47219;SDS011;32961;51.936;4.788;2023-05-01T11:57:48;14.30;;;6.03;;
47219;SDS011;32961;51.936;4.788;2023-05-01T12:00:25;13.20;;;5.32;;
47219;SDS011;32961;51.936;4.788;2023-05-01T12:02:55;9.73;;;5.60;;
47219;SDS011;32961;51.936;4.788;2023-05-01T12:05:25;12.77;;;5.57;;
47219;SDS011;32961;51.936;4.788;2023-05-01T12:08:08;13.25;;;5.20;;
47219;SDS011;32961;51.936;4.788;2023-05-01T12:10:39;8.13;;;4.95;;
47219;SDS011;32961;51.936;4.788;2023-05-01T12:13:09;12.43;;;5.47;;
47219;SDS011;32961;51.936;4.788;2023-05-01T12:15:41;9.52;;;5.05;;
47219;SDS011;32961;51.936;4.788;2023-05-01T12:18:10;11.68;;;6.10;;
47219;SDS011;32961;51.936;4.788;2023-05-01T12:20:40;11.77;;;5.32;;
47219;SDS011;32961;51.936;4.788;2023-05-01T12:23:10;11.70;;;4.88;;
47219;SDS011;32961;51.936;4.788;2023-05-01T12:25:40;10.10;;;5.55;;
47219;SDS011;32961;51.936;4.788;2023-05-01T12:28:09;17.60;;;6.15;;
47219;SDS011;32961;51.936;4.788;2023-05-01T12:30:38;9.40;;;5.97;;
47219;SDS011;32961;51.936;4.788;2023-05-01T12:33:10;9.50;;;5.97;;
47219;SDS011;32961;51.936;4.788;2023-05-01T12:35:40;9.63;;;5.30;;
47219;SDS011;32961;51.936;4.788;2023-05-01T12:38:12;7.18;;;4.40;;
47219;SDS011;32961;51.936;4.788;2023-05-01T12:40:51;9.43;;;5.05;;
47219;SDS011;32961;51.936;4.788;2023-05-01T12:43:20;11.07;;;4.72;;
47219;SDS011;32961;51.936;4.788;2023-05-01T12:45:50;9.77;;;5.30;;
47219;SDS011;32961;51.936;4.788;2023-05-01T12:48:19;11.20;;;4.65;;
47219;SDS011;32961;51.936;4.788;2023-05-01T12:50:47;12.95;;;4.85;;
47219;SDS011;32961;51.936;4.788;2023-05-01T12:53:22;12.48;;;4.72;;
47219;SDS011;32961;51.936;4.788;2023-05-01T12:55:51;7.28;;;4.60;;
47219;SDS011;32961;51.936;4.788;2023-05-01T12:58:20;6.93;;;4.88;;
47219;SDS011;32961;51.936;4.788;2023-05-01T13:00:50;9.20;;;4.65;;
47219;SDS011;32961;51.936;4.788;2023-05-01T13:03:21;11.98;;;4.90;;
47219;SDS011;32961;51.936;4.788;2023-05-01T13:05:53;10.18;;;3.95;;
47219;SDS011;32961;51.936;4.788;2023-05-01T13:08:28;12.05;;;4.50;;
47219;SDS011;32961;51.936;4.788;2023-05-01T13:10:58;11.43;;;4.18;;
47219;SDS011;32961;51.936;4.788;2023-05-01T13:13:28;7.72;;;4.10;;
47219;SDS011;32961;51.936;4.788;2023-05-01T13:16:05;6.97;;;3.83;;
47219;SDS011;32961;51.936;4.788;2023-05-01T13:18:42;9.23;;;3.97;;
47219;SDS011;32961;51.936;4.788;2023-05-01T13:21:14;6.53;;;3.30;;
47219;SDS011;32961;51.936;4.788;2023-05-01T13:23:52;6.00;;;2.95;;
47219;SDS011;32961;51.936;4.788;2023-05-01T13:26:24;7.32;;;3.15;;
47219;SDS011;32961;51.936;4.788;2023-05-01T13:28:55;8.23;;;3.10;;
47219;SDS011;32961;51.936;4.788;2023-05-01T13:31:25;8.80;;;3.53;;
47219;SDS011;32961;51.936;4.788;2023-05-01T13:33:53;5.95;;;3.75;;
47219;SDS011;32961;51.936;4.788;2023-05-01T13:36:23;8.50;;;3.67;;
47219;SDS011;32961;51.936;4.788;2023-05-01T13:38:54;5.85;;;3.15;;
47219;SDS011;32961;51.936;4.788;2023-05-01T13:41:23;8.38;;;3.75;;
47219;SDS011;32961;51.936;4.788;2023-05-01T13:43:53;7.28;;;3.08;;
47219;SDS011;32961;51.936;4.788;2023-05-01T13:46:22;5.03;;;3.63;;
47219;SDS011;32961;51.936;4.788;2023-05-01T13:48:52;8.68;;;4.20;;
47219;SDS011;32961;51.936;4.788;2023-05-01T13:51:21;7.63;;;3.78;;
47219;SDS011;32961;51.936;4.788;2023-05-01T13:53:50;6.70;;;3.65;;
47219;SDS011;32961;51.936;4.788;2023-05-01T13:56:20;9.80;;;4.15;;
47219;SDS011;32961;51.936;4.788;2023-05-01T13:58:48;8.73;;;3.90;;
47219;SDS011;32961;51.936;4.788;2023-05-01T14:01:17;8.23;;;3.60;;
47219;SDS011;32961;51.936;4.788;2023-05-01T14:03:47;6.10;;;3.78;;
47219;SDS011;32961;51.936;4.788;2023-05-01T14:06:16;6.05;;;3.90;;
47219;SDS011;32961;51.936;4.788;2023-05-01T14:08:46;8.63;;;4.30;;
47219;SDS011;32961;51.936;4.788;2023-05-01T14:11:15;10.38;;;4.10;;
47219;SDS011;32961;51.936;4.788;2023-05-01T14:13:45;8.07;;;4.60;;
47219;SDS011;32961;51.936;4.788;2023-05-01T14:16:18;6.55;;;4.00;;
47219;SDS011;32961;51.936;4.788;2023-05-01T14:18:50;8.38;;;4.85;;
47219;SDS011;32961;51.936;4.788;2023-05-01T14:21:20;12.43;;;4.60;;
47219;SDS011;32961;51.936;4.788;2023-05-01T14:23:50;8.82;;;5.47;;
47219;SDS011;32961;51.936;4.788;2023-05-01T14:26:19;9.48;;;4.82;;
47219;SDS011;32961;51.936;4.788;2023-05-01T14:28:50;9.05;;;5.18;;
47219;SDS011;32961;51.936;4.788;2023-05-01T14:31:22;17.95;;;6.50;;
47219;SDS011;32961;51.936;4.788;2023-05-01T14:33:53;18.40;;;6.20;;
47219;SDS011;32961;51.936;4.788;2023-05-01T14:36:22;8.93;;;5.00;;
47219;SDS011;32961;51.936;4.788;2023-05-01T14:38:51;12.95;;;5.93;;
47219;SDS011;32961;51.936;4.788;2023-05-01T14:41:19;8.60;;;5.90;;
47219;SDS011;32961;51.936;4.788;2023-05-01T14:43:47;12.93;;;5.97;;
47219;SDS011;32961;51.936;4.788;2023-05-01T14:46:25;8.32;;;4.90;;
47219;SDS011;32961;51.936;4.788;2023-05-01T14:48:56;6.63;;;4.93;;
47219;SDS011;32961;51.936;4.788;2023-05-01T14:51:24;7.53;;;5.30;;
47219;SDS011;32961;51.936;4.788;2023-05-01T14:53:52;9.25;;;5.45;;
47219;SDS011;32961;51.936;4.788;2023-05-01T14:56:21;8.90;;;5.80;;
47219;SDS011;32961;51.936;4.788;2023-05-01T14:58:50;11.32;;;5.45;;
47219;SDS011;32961;51.936;4.788;2023-05-01T15:01:18;9.98;;;5.10;;
47219;SDS011;32961;51.936;4.788;2023-05-01T15:03:47;7.40;;;4.65;;
47219;SDS011;32961;51.936;4.788;2023-05-01T15:06:15;6.25;;;4.25;;
47219;SDS011;32961;51.936;4.788;2023-05-01T15:08:43;9.48;;;4.30;;
47219;SDS011;32961;51.936;4.788;2023-05-01T15:11:11;8.65;;;4.45;;
47219;SDS011;32961;51.936;4.788;2023-05-01T15:13:40;6.68;;;4.70;;
47219;SDS011;32961;51.936;4.788;2023-05-01T15:16:10;5.40;;;3.60;;
47219;SDS011;32961;51.936;4.788;2023-05-01T15:18:38;7.28;;;3.80;;
47219;SDS011;32961;51.936;4.788;2023-05-01T15:21:06;5.50;;;4.15;;
47219;SDS011;32961;51.936;4.788;2023-05-01T15:23:34;5.68;;;4.53;;
47219;SDS011;32961;51.936;4.788;2023-05-01T15:26:03;6.57;;;4.00;;